createdAt,value
2022-09-20T00:01:28.815Z,98.70
2022-09-20T00:03:57.447Z,98.70
2022-09-20T00:06:27.051Z,99.00
2022-09-20T00:08:54.094Z,98.80
2022-09-20T00:11:23.104Z,99.10
2022-09-20T00:13:52.833Z,99.00
2022-09-20T00:16:23.282Z,98.40
2022-09-20T00:18:50.577Z,98.40
2022-09-20T00:21:18.445Z,98.60
2022-09-20T00:23:45.535Z,98.40
2022-09-20T00:26:12.817Z,98.60
2022-09-20T00:28:40.008Z,98.60
2022-09-20T00:31:08.125Z,98.50
2022-09-20T00:33:34.889Z,98.50
2022-09-20T00:36:01.945Z,98.70
2022-09-20T00:38:28.636Z,98.60
2022-09-20T00:40:55.345Z,98.50
2022-09-20T00:43:36.725Z,98.40
2022-09-20T00:46:04.412Z,98.50
2022-09-20T00:48:33.363Z,98.40
2022-09-20T00:51:04.361Z,98.50
2022-09-20T00:53:33.590Z,98.30
2022-09-20T00:56:03.965Z,98.50
2022-09-20T00:58:36.847Z,98.60
2022-09-20T01:01:05.674Z,98.40
2022-09-20T01:03:36.312Z,98.40
2022-09-20T01:06:06.721Z,98.70
2022-09-20T01:08:35.094Z,98.60
2022-09-20T01:11:02.453Z,98.80
2022-09-20T01:13:29.192Z,98.80
2022-09-20T01:15:57.357Z,98.70
2022-09-20T01:18:24.430Z,98.70
2022-09-20T01:20:52.755Z,99.10
2022-09-20T01:23:29.702Z,99.00
2022-09-20T01:26:21.870Z,99.00
2022-09-20T01:29:00.819Z,99.10
2022-09-20T01:31:32.163Z,99.20
2022-09-20T01:34:01.683Z,98.80
2022-09-20T01:36:35.484Z,99.10
2022-09-20T01:39:11.583Z,99.40
2022-09-20T01:41:43.869Z,99.00
2022-09-20T01:44:22.656Z,99.40
2022-09-20T01:46:53.617Z,99.30
2022-09-20T01:49:29.063Z,99.30
2022-09-20T01:52:25.489Z,99.10
2022-09-20T01:55:22.932Z,99.00
2022-09-20T01:58:24.607Z,99.10
2022-09-20T02:01:25.392Z,99.30
2022-09-20T02:04:27.679Z,99.30
2022-09-20T02:07:16.071Z,99.50
2022-09-20T02:10:14.071Z,99.30
2022-09-20T02:12:53.722Z,99.30
2022-09-20T02:16:04.787Z,99.50
2022-09-20T02:18:47.417Z,99.60
2022-09-20T02:21:27.999Z,99.50
2022-09-20T02:24:03.167Z,99.50
2022-09-20T02:26:39.166Z,99.30
2022-09-20T02:29:16.962Z,99.40
2022-09-20T02:32:17.136Z,99.30
2022-09-20T02:35:13.223Z,99.70
2022-09-20T02:37:53.533Z,99.60
2022-09-20T02:40:30.143Z,99.60
2022-09-20T02:43:04.700Z,99.60
2022-09-20T02:45:38.293Z,99.50
2022-09-20T02:48:06.012Z,99.70
2022-09-20T02:50:45.170Z,99.90
2022-09-20T02:53:26.367Z,99.90
2022-09-20T02:56:02.994Z,99.90
2022-09-20T02:58:40.003Z,99.90
2022-09-20T03:01:17.527Z,99.90
2022-09-20T03:03:53.223Z,99.90
2022-09-20T03:06:32.415Z,99.90
2022-09-20T03:09:08.308Z,99.90
2022-09-20T03:11:43.055Z,99.90
2022-09-20T03:14:18.727Z,99.80
2022-09-20T03:16:57.972Z,99.90
2022-09-20T03:19:33.713Z,99.90
2022-09-20T03:22:13.829Z,99.90
2022-09-20T03:24:51.411Z,99.90
2022-09-20T03:27:28.192Z,99.90
2022-09-20T03:30:08.647Z,99.90
2022-09-20T03:32:51.219Z,99.90
2022-09-20T03:35:29.448Z,99.90
2022-09-20T03:38:09.899Z,99.90
2022-09-20T03:40:56.255Z,99.90
2022-09-20T03:43:37.661Z,99.90
2022-09-20T03:46:16.933Z,99.90
2022-09-20T03:49:12.364Z,99.90
2022-09-20T03:51:48.765Z,99.90
2022-09-20T03:54:48.450Z,99.90
2022-09-20T03:57:38.825Z,99.90
2022-09-20T04:00:32.334Z,99.90
2022-09-20T04:03:19.321Z,99.90
2022-09-20T04:06:01.881Z,99.90
2022-09-20T04:08:55.781Z,99.90
2022-09-20T04:11:29.250Z,99.90
2022-09-20T04:14:00.802Z,99.90
2022-09-20T04:16:39.487Z,99.90
2022-09-20T04:19:14.598Z,99.90
2022-09-20T04:21:48.347Z,99.90
2022-09-20T04:24:21.123Z,99.90
2022-09-20T04:26:53.948Z,99.90
2022-09-20T04:29:32.635Z,99.90
2022-09-20T04:32:06.742Z,99.90
2022-09-20T04:34:35.358Z,99.90
2022-09-20T04:37:15.911Z,99.90
2022-09-20T04:39:49.255Z,99.90
2022-09-20T04:42:48.718Z,99.90
2022-09-20T04:45:47.714Z,99.90
2022-09-20T04:49:13.230Z,99.90
2022-09-20T04:52:21.059Z,99.90
2022-09-20T04:55:30.562Z,99.90
2022-09-20T04:58:36.902Z,99.90
2022-09-20T05:01:34.057Z,99.90
2022-09-20T05:04:31.523Z,99.90
2022-09-20T05:07:31.395Z,99.90
2022-09-20T05:10:34.674Z,99.90
2022-09-20T05:13:16.339Z,99.90
2022-09-20T05:15:55.534Z,99.90
2022-09-20T05:18:50.071Z,99.90
2022-09-20T05:21:43.572Z,99.90
2022-09-20T05:24:35.023Z,99.90
2022-09-20T05:27:19.603Z,99.90
2022-09-20T05:29:52.558Z,99.90
2022-09-20T05:32:27.327Z,99.90
2022-09-20T05:35:00.590Z,99.90
2022-09-20T05:37:39.707Z,99.90
2022-09-20T05:40:18.073Z,99.90
2022-09-20T05:42:53.821Z,99.90
2022-09-20T05:45:46.509Z,99.90
2022-09-20T05:48:15.757Z,99.90
2022-09-20T05:50:55.253Z,99.90
2022-09-20T05:54:10.022Z,99.90
2022-09-20T05:56:46.739Z,99.90
2022-09-20T05:59:30.094Z,99.90
2022-09-20T06:02:10.175Z,99.90
2022-09-20T06:04:43.667Z,99.90
2022-09-20T06:07:23.808Z,99.90
2022-09-20T06:10:14.155Z,99.90
2022-09-20T06:12:51.749Z,99.90
2022-09-20T06:15:25.767Z,99.90
2022-09-20T06:18:02.984Z,99.90
2022-09-20T06:20:35.384Z,99.90
2022-09-20T06:23:05.206Z,99.90
2022-09-20T06:25:39.622Z,99.90
2022-09-20T06:28:12.762Z,99.90
2022-09-20T06:30:43.284Z,99.90
2022-09-20T06:33:15.457Z,99.90
2022-09-20T06:35:46.310Z,99.90
2022-09-20T06:38:33.642Z,99.90
2022-09-20T06:41:00.470Z,99.90
2022-09-20T06:43:27.212Z,99.90
2022-09-20T06:45:54.016Z,99.90
2022-09-20T06:48:20.774Z,99.90
2022-09-20T06:50:47.569Z,99.90
2022-09-20T06:53:18.565Z,99.90
2022-09-20T06:55:46.671Z,99.90
2022-09-20T06:58:13.396Z,99.90
2022-09-20T07:00:40.309Z,99.90
2022-09-20T07:03:07.574Z,99.90
2022-09-20T07:05:34.277Z,99.90
2022-09-20T07:08:01.459Z,99.90
2022-09-20T07:10:29.758Z,99.90
2022-09-20T07:12:57.189Z,99.90
2022-09-20T07:15:23.911Z,99.90
2022-09-20T07:17:50.727Z,99.90
2022-09-20T07:20:21.378Z,99.90
2022-09-20T07:22:48.841Z,99.90
2022-09-20T07:25:15.929Z,99.90
2022-09-20T07:27:44.006Z,99.90
2022-09-20T07:30:12.159Z,99.90
2022-09-20T07:32:38.903Z,99.90
2022-09-20T07:35:06.674Z,99.90
2022-09-20T07:37:36.996Z,99.90
2022-09-20T07:40:05.083Z,99.90
2022-09-20T07:42:32.117Z,99.90
2022-09-20T07:45:00.647Z,99.90
2022-09-20T07:47:27.474Z,99.90
2022-09-20T07:49:54.219Z,99.70
2022-09-20T07:52:20.945Z,99.80
2022-09-20T07:54:47.661Z,99.90
2022-09-20T07:57:14.455Z,99.80
2022-09-20T07:59:41.206Z,99.80
2022-09-20T08:02:13.637Z,99.50
2022-09-20T08:04:40.495Z,99.20
2022-09-20T08:07:07.230Z,99.00
2022-09-20T08:09:34.117Z,98.90
2022-09-20T08:14:05.467Z,98.80
2022-09-20T08:14:47.655Z,98.90
2022-09-20T08:17:15.774Z,98.60
2022-09-20T08:19:42.471Z,98.60
2022-09-20T08:22:09.266Z,98.40
2022-09-20T08:24:36.015Z,98.50
2022-09-20T08:27:02.736Z,98.40
2022-09-20T08:29:29.527Z,98.30
2022-09-20T08:31:56.298Z,98.30
2022-09-20T08:34:24.585Z,98.20
2022-09-20T08:36:51.297Z,98.20
2022-09-20T08:42:13.326Z,98.10
2022-09-20T08:44:47.735Z,98.20
2022-09-20T08:47:19.850Z,98.20
2022-09-20T08:49:50.128Z,98.20
2022-09-20T08:52:19.440Z,98.20
2022-09-20T08:54:46.353Z,98.20
2022-09-20T08:57:17.001Z,98.30
2022-09-20T08:59:44.229Z,98.20
2022-09-20T09:02:15.839Z,98.20
2022-09-20T09:04:43.436Z,98.20
2022-09-20T09:07:13.034Z,98.40
2022-09-20T09:09:43.029Z,98.40
2022-09-20T09:12:19.096Z,98.80
2022-09-20T09:14:45.860Z,98.60
2022-09-20T09:17:14.882Z,98.60
2022-09-20T09:19:47.578Z,98.60
2022-09-20T09:22:21.836Z,98.60
2022-09-20T09:25:19.197Z,98.60
2022-09-20T09:27:57.440Z,98.60
2022-09-20T09:30:27.528Z,98.60
2022-09-20T09:33:17.343Z,98.70
2022-09-20T09:35:45.043Z,98.50
2022-09-20T09:38:19.334Z,98.50
2022-09-20T09:40:51.099Z,98.50
2022-09-20T09:43:21.159Z,98.60
2022-09-20T09:45:47.965Z,98.50
2022-09-20T09:48:19.215Z,98.50
2022-09-20T09:50:46.385Z,98.50
2022-09-20T09:53:15.828Z,98.50
2022-09-20T09:56:14.294Z,98.50
2022-09-20T09:58:51.606Z,98.40
2022-09-20T10:01:32.512Z,98.40
2022-09-20T10:04:09.598Z,98.50
2022-09-20T10:06:44.226Z,98.40
2022-09-20T10:09:36.538Z,98.40
2022-09-20T10:12:19.038Z,98.50
2022-09-20T10:14:56.566Z,98.40
2022-09-20T10:17:39.044Z,98.30
2022-09-20T10:20:23.986Z,98.40
2022-09-20T10:23:29.899Z,98.00
2022-09-20T10:25:50.426Z,98.10
2022-09-20T10:28:34.139Z,98.20
2022-09-20T10:31:09.838Z,98.10
2022-09-20T10:33:44.858Z,98.20
2022-09-20T10:36:22.237Z,98.30
2022-09-20T10:38:57.745Z,98.30
2022-09-20T10:41:40.822Z,98.40
2022-09-20T10:44:27.214Z,98.50
2022-09-20T10:47:01.963Z,98.40
2022-09-20T10:49:35.690Z,98.50
2022-09-20T10:52:18.791Z,98.50
2022-09-20T10:55:08.427Z,98.50
2022-09-20T10:57:52.337Z,98.60
2022-09-20T11:00:23.235Z,98.70
2022-09-20T11:03:04.679Z,98.80
2022-09-20T11:05:42.175Z,98.70
2022-09-20T11:08:13.735Z,98.70
2022-09-20T11:10:44.211Z,98.90
2022-09-20T11:13:19.795Z,99.00
2022-09-20T11:15:54.749Z,99.00
2022-09-20T11:18:24.559Z,99.00
2022-09-20T11:20:58.645Z,99.10
2022-09-20T11:23:31.995Z,99.40
2022-09-20T11:26:05.477Z,99.10
2022-09-20T11:28:36.003Z,99.10
2022-09-20T11:31:10.791Z,99.10
2022-09-20T11:33:42.657Z,99.20
2022-09-20T11:36:15.603Z,99.10
2022-09-20T11:38:52.996Z,99.10
2022-09-20T11:41:24.751Z,99.30
2022-09-20T11:43:52.143Z,99.10
2022-09-20T11:46:25.506Z,99.20
2022-09-20T11:48:58.475Z,99.30
2022-09-20T11:52:10.838Z,99.30
2022-09-20T11:55:06.303Z,99.40
2022-09-20T11:57:33.679Z,99.50
2022-09-20T12:00:02.470Z,99.60
2022-09-20T12:02:35.233Z,99.60
2022-09-20T12:05:04.643Z,99.30
2022-09-20T12:07:36.285Z,99.40
2022-09-20T12:10:06.585Z,99.40
2022-09-20T12:12:37.701Z,99.00
2022-09-20T12:15:07.197Z,99.20
2022-09-20T12:18:09.774Z,99.20
2022-09-20T12:21:06.421Z,99.30
2022-09-20T12:24:16.874Z,99.40
2022-09-20T12:26:48.398Z,99.40
2022-09-20T12:29:51.766Z,99.50
2022-09-20T12:32:42.938Z,99.60
2022-09-20T12:35:55.548Z,99.60
2022-09-20T12:38:31.976Z,99.50
2022-09-20T12:41:00.883Z,99.60
2022-09-20T12:43:30.367Z,99.50
2022-09-20T12:46:03.445Z,99.50
2022-09-20T12:48:37.548Z,99.90
2022-09-20T12:51:16.159Z,99.70
2022-09-20T12:54:02.340Z,99.80
2022-09-20T12:56:29.207Z,99.90
2022-09-20T12:58:56.818Z,99.80
2022-09-20T13:01:34.546Z,99.80
2022-09-20T13:04:53.358Z,99.80
2022-09-20T13:07:51.985Z,99.90
2022-09-20T13:10:31.819Z,98.70
2022-09-20T13:13:03.801Z,96.50
2022-09-20T13:15:31.135Z,98.80
2022-09-20T13:18:01.031Z,99.30
2022-09-20T13:20:30.173Z,99.50
2022-09-20T13:23:00.435Z,98.70
2022-09-20T13:25:29.264Z,98.40
2022-09-20T13:28:03.204Z,98.90
2022-09-20T13:30:30.867Z,99.10
2022-09-20T13:32:57.609Z,99.10
2022-09-20T13:35:26.797Z,99.20
2022-09-20T13:37:55.225Z,97.40
2022-09-20T13:40:25.254Z,98.60
2022-09-20T13:43:12.932Z,98.70
2022-09-20T13:45:42.276Z,98.90
2022-09-20T13:48:09.391Z,99.00
2022-09-20T13:50:36.287Z,99.00
2022-09-20T13:53:23.615Z,99.10
2022-09-20T13:56:00.383Z,99.20
2022-09-20T13:58:31.683Z,99.30
2022-09-20T14:00:59.980Z,99.30
2022-09-20T14:03:28.521Z,99.10
2022-09-20T14:05:59.129Z,99.10
2022-09-20T14:08:31.496Z,99.10
2022-09-20T14:11:06.863Z,98.10
2022-09-20T14:13:38.659Z,98.90
2022-09-20T14:16:06.545Z,99.00
2022-09-20T14:18:34.407Z,99.10
2022-09-20T14:21:02.052Z,99.20
2022-09-20T14:23:29.766Z,99.20
2022-09-20T14:26:07.273Z,98.70
2022-09-20T14:28:35.294Z,99.00
2022-09-20T14:31:08.533Z,99.10
2022-09-20T14:33:42.861Z,99.10
2022-09-20T14:36:14.020Z,99.00
2022-09-20T14:38:44.198Z,99.10
2022-09-20T14:41:11.506Z,99.00
2022-09-20T14:43:40.091Z,99.00
2022-09-20T14:46:16.726Z,99.00
2022-09-20T14:48:43.917Z,99.00
2022-09-20T14:51:22.793Z,98.90
2022-09-20T14:53:52.348Z,98.80
2022-09-20T14:56:32.137Z,98.70
2022-09-20T14:59:06.558Z,98.70
2022-09-20T15:01:34.334Z,98.70
2022-09-20T15:04:07.409Z,98.70
2022-09-20T15:06:35.576Z,98.60
2022-09-20T15:09:02.400Z,98.70
2022-09-20T15:11:29.128Z,98.70
2022-09-20T15:13:55.987Z,98.20
2022-09-20T15:16:24.152Z,97.70
2022-09-20T15:18:50.923Z,98.10
2022-09-20T15:21:17.663Z,98.20
2022-09-20T15:23:44.381Z,97.90
2022-09-20T15:26:12.948Z,97.70
2022-09-20T15:28:39.823Z,98.00
2022-09-20T15:31:06.881Z,96.40
2022-09-20T15:33:34.998Z,95.10
2022-09-20T15:36:02.720Z,95.10
2022-09-20T15:38:29.539Z,96.10
2022-09-20T15:40:56.393Z,96.10
2022-09-20T15:43:24.078Z,94.80
2022-09-20T15:45:52.442Z,93.40
2022-09-20T15:48:20.532Z,94.90
2022-09-20T15:51:00.910Z,95.20
2022-09-20T15:53:28.178Z,95.70
2022-09-20T15:55:54.891Z,95.90
2022-09-20T15:58:21.612Z,96.00
2022-09-20T16:00:48.500Z,96.00
2022-09-20T16:03:15.381Z,96.10
2022-09-20T16:05:42.234Z,96.00
2022-09-20T16:08:10.311Z,96.10
2022-09-20T16:10:37.056Z,96.10
2022-09-20T16:13:03.775Z,96.20
2022-09-20T16:15:30.490Z,96.10
2022-09-20T16:17:57.239Z,96.10
2022-09-20T16:20:24.010Z,95.70
2022-09-20T16:22:50.914Z,95.10
2022-09-20T16:25:18.999Z,94.80
2022-09-20T16:27:45.734Z,94.80
2022-09-20T16:30:12.994Z,94.30
2022-09-20T16:32:39.715Z,94.10
2022-09-20T16:35:07.425Z,93.20
2022-09-20T16:37:34.162Z,91.30
2022-09-20T16:40:01.232Z,91.50
2022-09-20T16:42:29.332Z,91.70
2022-09-20T16:44:56.059Z,90.60
2022-09-20T16:47:22.807Z,90.70
2022-09-20T16:49:49.645Z,90.70
2022-09-20T16:52:16.640Z,90.60
2022-09-20T16:54:43.366Z,90.00
2022-09-20T16:57:10.110Z,90.10
2022-09-20T16:59:38.195Z,89.40
2022-09-20T17:02:04.953Z,88.10
2022-09-20T17:04:31.740Z,88.40
2022-09-20T17:06:58.518Z,88.70
2022-09-20T17:09:25.295Z,88.80
2022-09-20T17:11:52.023Z,87.40
2022-09-20T17:14:19.957Z,86.70
2022-09-20T17:16:54.759Z,85.60
2022-09-20T17:19:23.200Z,85.50
2022-09-20T17:21:51.590Z,88.80
2022-09-20T17:24:20.358Z,88.50
2022-09-20T17:26:48.751Z,90.20
2022-09-20T17:29:18.245Z,90.80
2022-09-20T17:31:55.121Z,92.20
2022-09-20T17:34:26.775Z,92.60
2022-09-20T17:36:54.345Z,92.90
2022-09-20T17:39:21.638Z,93.20
2022-09-20T17:41:50.917Z,93.10
2022-09-20T17:44:19.790Z,93.20
2022-09-20T17:46:50.319Z,94.00
2022-09-20T17:49:20.743Z,94.80
2022-09-20T17:51:50.490Z,95.10
2022-09-20T17:54:19.882Z,95.60
2022-09-20T17:56:48.730Z,95.70
2022-09-20T17:59:19.041Z,95.70
2022-09-20T18:01:50.983Z,95.50
2022-09-20T18:04:18.309Z,95.90
2022-09-20T18:06:46.752Z,95.70
2022-09-20T18:09:15.947Z,95.60
2022-09-20T18:11:44.600Z,96.00
2022-09-20T18:14:11.298Z,96.20
2022-09-20T18:16:38.050Z,95.90
2022-09-20T18:19:07.618Z,95.00
2022-09-20T18:21:35.348Z,94.90
2022-09-20T18:24:05.110Z,96.00
2022-09-20T18:26:32.135Z,95.40
2022-09-20T18:29:00.560Z,96.10
2022-09-20T18:31:28.805Z,96.50
2022-09-20T18:33:56.787Z,96.40
2022-09-20T18:36:25.167Z,96.00
2022-09-20T18:38:52.354Z,95.30
2022-09-20T18:41:19.039Z,95.70
2022-09-20T18:43:46.963Z,95.30
2022-09-20T18:46:13.748Z,95.30
2022-09-20T18:48:40.545Z,96.00
2022-09-20T18:51:08.692Z,96.00
2022-09-20T18:53:38.789Z,95.60
2022-09-20T18:56:07.581Z,95.30
2022-09-20T18:58:35.208Z,94.80
2022-09-20T19:01:19.049Z,95.10
2022-09-20T19:03:55.471Z,95.60
2022-09-20T19:06:25.195Z,95.80
2022-09-20T19:09:00.831Z,95.30
2022-09-20T19:11:32.813Z,95.00
2022-09-20T19:14:05.983Z,94.60
2022-09-20T19:16:34.526Z,95.30
2022-09-20T19:19:27.875Z,95.80
2022-09-20T19:21:59.273Z,95.50
2022-09-20T19:24:45.776Z,94.30
2022-09-20T19:27:13.485Z,95.00
2022-09-20T19:29:41.120Z,94.50
2022-09-20T19:32:14.642Z,94.20
2022-09-20T19:34:43.493Z,94.00
2022-09-20T19:37:20.421Z,94.00
2022-09-20T19:40:14.094Z,94.10
2022-09-20T19:42:53.708Z,94.30
2022-09-20T19:45:30.724Z,94.50
2022-09-20T19:48:06.540Z,94.10
2022-09-20T19:50:46.127Z,93.80
2022-09-20T19:53:17.391Z,94.50
2022-09-20T19:55:49.619Z,93.60
2022-09-20T19:58:18.061Z,94.60
2022-09-20T20:00:48.630Z,94.40
2022-09-20T20:03:16.464Z,94.20
2022-09-20T20:05:50.586Z,93.60
2022-09-20T20:08:19.625Z,93.50
2022-09-20T20:10:57.308Z,93.10
2022-09-20T20:13:32.673Z,93.20
2022-09-20T20:16:02.469Z,93.00
2022-09-20T20:18:37.188Z,92.30
2022-09-20T20:21:10.798Z,92.90
2022-09-20T20:24:03.776Z,92.00
2022-09-20T20:26:32.015Z,92.40
2022-09-20T20:28:58.753Z,92.00
2022-09-20T20:31:25.524Z,91.90
2022-09-20T20:33:52.274Z,91.80
2022-09-20T20:36:18.957Z,91.80
2022-09-20T20:38:45.798Z,92.10
2022-09-20T20:41:14.827Z,91.70
2022-09-20T20:43:44.347Z,92.00
2022-09-20T20:46:12.305Z,91.90
2022-09-20T20:48:39.099Z,92.20
2022-09-20T20:51:07.683Z,92.10
2022-09-20T20:53:37.194Z,91.80
2022-09-20T20:56:06.563Z,91.70
2022-09-20T20:58:34.424Z,91.40
2022-09-20T21:01:07.789Z,92.60
2022-09-20T21:03:34.658Z,93.30
2022-09-20T21:06:01.415Z,93.00
2022-09-20T21:08:31.344Z,92.40
2022-09-20T21:11:00.871Z,92.50
2022-09-20T21:13:27.607Z,92.00
2022-09-20T21:15:54.314Z,91.80
2022-09-20T21:18:22.420Z,91.90
2022-09-20T21:20:49.118Z,91.10
2022-09-20T21:23:15.795Z,91.90
2022-09-20T21:25:42.478Z,91.40
2022-09-20T21:28:09.364Z,91.50
2022-09-20T21:30:36.138Z,91.40
2022-09-20T21:33:02.854Z,91.70
2022-09-20T21:35:30.933Z,91.00
2022-09-20T21:37:57.655Z,92.40
2022-09-20T21:40:24.458Z,91.70
2022-09-20T21:42:52.499Z,91.10
2022-09-20T21:45:19.233Z,90.60
2022-09-20T21:47:48.815Z,90.80
2022-09-20T21:50:15.661Z,90.60
2022-09-20T21:52:45.902Z,90.70
2022-09-20T21:55:12.718Z,91.20
2022-09-20T21:57:39.429Z,91.20
2022-09-20T22:00:07.725Z,90.60
2022-09-20T22:02:34.493Z,90.50
2022-09-20T22:05:01.282Z,90.30
2022-09-20T22:07:28.096Z,90.60
2022-09-20T22:09:56.159Z,90.70
2022-09-20T22:12:24.202Z,89.40
2022-09-20T22:14:50.989Z,89.00
2022-09-20T22:17:17.714Z,90.00
2022-09-20T22:19:44.437Z,89.40
2022-09-20T22:22:11.171Z,90.00
2022-09-20T22:24:37.898Z,89.30
2022-09-20T22:27:06.227Z,90.50
2022-09-20T22:29:32.958Z,90.00
2022-09-20T22:31:59.682Z,89.60
2022-09-20T22:34:26.390Z,89.50
2022-09-20T22:36:53.172Z,88.90
2022-09-20T22:39:19.872Z,89.40
2022-09-20T22:41:46.691Z,89.10
2022-09-20T22:44:14.840Z,88.70
2022-09-20T22:46:41.586Z,88.50
2022-09-20T22:49:09.288Z,88.00
2022-09-20T22:51:37.115Z,87.70
2022-09-20T22:54:06.806Z,87.50
2022-09-20T22:56:33.609Z,87.70
2022-09-20T22:59:03.731Z,88.60
2022-09-20T23:01:33.323Z,90.30
2022-09-20T23:04:01.955Z,90.90
2022-09-20T23:06:30.799Z,90.70
2022-09-20T23:08:59.423Z,89.80
2022-09-20T23:11:26.810Z,87.90
2022-09-20T23:13:54.628Z,87.50
2022-09-20T23:16:23.742Z,86.80
2022-09-20T23:18:52.761Z,87.30
2022-09-20T23:21:20.087Z,88.70
2022-09-20T23:23:47.258Z,89.60
2022-09-20T23:26:16.202Z,88.00
2022-09-20T23:28:45.163Z,88.40
2022-09-20T23:31:13.766Z,88.20
2022-09-20T23:33:46.753Z,88.40
2022-09-20T23:36:16.752Z,88.80
2022-09-20T23:38:44.103Z,87.00
2022-09-20T23:41:12.995Z,87.10
2022-09-20T23:43:41.536Z,85.80
2022-09-20T23:46:09.953Z,86.10
2022-09-20T23:48:37.926Z,85.60
2022-09-20T23:51:05.597Z,86.70
2022-09-20T23:53:34.276Z,87.10
2022-09-20T23:56:01.397Z,88.40
2022-09-20T23:58:28.351Z,89.00
